Burlington, Illinois
Current Conditions -  °F | °C
As of 1:15 AM on Saturday 25 Oct 2014 (Local Time) from KDKB Reporting Station
Scattered Clouds Scattered Clouds  
Wind Chill: 54°   Ceiling: Unl
Heat Index: 54°   Visibility: 10mi
Dew Point: 49°   Wind: 7mph
Humidity: 82%   Direction: 260°W
Pressure: 29.92"   Gusts: NA
Location:  42.05°N, 88.55°W
Report Text: KDKB 250615Z AUTO 26006KT 10SM SCT010 SCT034 12/09 A2992 RMK AO2 T01220092
Loading
Personal Weather Stations






























Interactive Weather Map
Tropical Storm Tracking
New forecast layout! Learn more

10-Day Weather Forecast

Advertisements
Track Severe Weather on mobile